Time;durP1;ratioP1;P1;durP2;ratioP2;P2;SDS_P1;SDS_P2;PMS_P1;PMS_P2;Temp;Humidity;BMP_temperature;BMP_pressure;BME280_temperature;BME280_humidity;BME280_pressure;Samples;Min_cycle;Max_cycle;Signal;HPM_P1;HPM_P2
2021/04/28 04:47:29;;;;;;;7.35;2.72;;;;;;;;;;6238621;22;883546;-76
2021/04/28 04:49:55;;;;;;;10.10;3.42;;;;;;;;;;6313143;22;20328;-75
2021/04/28 04:52:21;;;;;;;5.45;3.05;;;;;;;;;;6313178;22;20003;-75
2021/04/28 04:54:46;;;;;;;6.95;2.95;;;;;;;;;;6313066;22;20074;-76
2021/04/28 04:57:12;;;;;;;5.30;3.08;;;;;;;;;;6286374;22;20074;-76
2021/04/28 04:59:38;;;;;;;4.95;2.88;;;;;;;;;;6282534;22;20078;-74
2021/04/28 05:02:03;;;;;;;5.28;3.53;;;;;;;;;;6283070;22;20370;-75
2021/04/28 05:04:29;;;;;;;5.93;2.85;;;;;;;;;;6282123;22;20003;-74
2021/04/28 05:06:54;;;;;;;5.45;2.58;;;;;;;;;;6282410;22;20075;-75
2021/04/28 05:09:21;;;;;;;6.38;2.70;;;;;;;;;;6281930;22;20426;-75
2021/04/28 05:11:46;;;;;;;5.43;2.83;;;;;;;;;;6282488;22;20007;-75
2021/04/28 05:14:12;;;;;;;6.32;2.97;;;;;;;;;;6282237;22;20448;-75
2021/04/28 05:16:38;;;;;;;7.50;3.17;;;;;;;;;;6281263;22;20031;-75
2021/04/28 05:19:03;;;;;;;5.97;2.28;;;;;;;;;;6253958;22;20082;-75
2021/04/28 05:21:29;;;;;;;6.53;2.80;;;;;;;;;;6281426;22;20030;-75
2021/04/28 05:23:55;;;;;;;7.07;3.50;;;;;;;;;;6281074;22;20034;-75
2021/04/28 05:26:20;;;;;;;4.43;2.45;;;;;;;;;;6281395;22;20082;-75
2021/04/28 05:31:05;;;;;;;7.03;2.88;;;;;;;;;;5066627;28;20453;-75
2021/04/28 05:33:30;;;;;;;4.28;2.30;;;;;;;;;;5063118;28;20404;-76
2021/04/28 05:35:56;;;;;;;5.43;2.83;;;;;;;;;;5057267;28;20040;-76
2021/04/28 05:38:22;;;;;;;5.18;2.40;;;;;;;;;;5043372;28;20394;-76
2021/04/28 05:40:48;;;;;;;7.50;2.88;;;;;;;;;;5046090;28;20033;-76
2021/04/28 05:43:13;;;;;;;5.20;3.10;;;;;;;;;;5046590;28;20103;-79
2021/04/28 05:45:43;;;;;;;6.93;2.78;;;;;;;;;;5043715;28;20025;-76
2021/04/28 05:48:12;;;;;;;4.95;2.80;;;;;;;;;;5042957;28;20039;-76
2021/04/28 05:50:38;;;;;;;5.63;3.25;;;;;;;;;;5041830;28;20049;-76
2021/04/28 05:53:03;;;;;;;4.80;2.78;;;;;;;;;;5047036;28;20132;-77
2021/04/28 05:55:29;;;;;;;5.45;3.08;;;;;;;;;;5047626;28;20017;-76
2021/04/28 05:57:55;;;;;;;6.88;3.28;;;;;;;;;;5047354;28;20025;-76
2021/04/28 06:00:21;;;;;;;5.68;3.08;;;;;;;;;;5047556;28;20358;-76
2021/04/28 06:02:47;;;;;;;5.20;2.90;;;;;;;;;;5051081;28;20023;-76
2021/04/28 06:05:13;;;;;;;6.72;3.13;;;;;;;;;;5049097;28;20033;-76
2021/04/28 06:07:39;;;;;;;9.38;2.80;;;;;;;;;;5048513;28;20053;-76
2021/04/28 06:10:04;;;;;;;8.32;3.17;;;;;;;;;;5049430;28;20473;-76
2021/04/28 06:12:30;;;;;;;6.97;2.75;;;;;;;;;;5045253;28;20053;-75
2021/04/28 06:17:15;;;;;;;6.05;3.40;;;;;;;;;;5090414;27;20402;-75
2021/04/28 06:19:41;;;;;;;5.72;3.38;;;;;;;;;;5076736;28;20035;-76
2021/04/28 06:22:07;;;;;;;7.53;3.25;;;;;;;;;;5081025;28;20025;-75
2021/04/28 06:24:32;;;;;;;8.40;3.97;;;;;;;;;;5081671;28;20131;-76
2021/04/28 06:26:58;;;;;;;6.15;3.13;;;;;;;;;;5076902;28;20021;-75
2021/04/28 06:29:24;;;;;;;8.02;3.33;;;;;;;;;;5078229;28;20488;-76
2021/04/28 06:31:50;;;;;;;4.72;3.28;;;;;;;;;;5079767;28;20032;-76
2021/04/28 06:34:15;;;;;;;15.27;3.75;;;;;;;;;;5079882;28;20070;-76
2021/04/28 06:36:41;;;;;;;5.43;2.85;;;;;;;;;;5080612;28;20653;-76
2021/04/28 06:39:07;;;;;;;5.60;2.83;;;;;;;;;;5080392;28;20028;-76
2021/04/28 06:41:33;;;;;;;6.57;3.08;;;;;;;;;;5082051;28;20024;-76
2021/04/28 06:43:58;;;;;;;8.00;3.10;;;;;;;;;;5080627;28;20112;-76
2021/04/28 06:46:24;;;;;;;6.72;2.88;;;;;;;;;;5082211;28;20103;-76
2021/04/28 06:48:50;;;;;;;6.60;2.80;;;;;;;;;;5080279;28;20024;-76
2021/04/28 06:51:15;;;;;;;5.03;3.00;;;;;;;;;;5081513;28;20103;-76
2021/04/28 06:53:41;;;;;;;4.85;2.47;;;;;;;;;;5081733;28;20028;-76
2021/04/28 06:56:07;;;;;;;5.20;2.95;;;;;;;;;;5079954;28;20502;-76
2021/04/28 06:58:33;;;;;;;5.38;2.50;;;;;;;;;;5077016;28;20052;-76
2021/04/28 07:00:59;;;;;;;4.72;3.17;;;;;;;;;;5079204;28;20013;-76
2021/04/28 07:03:25;;;;;;;5.20;2.60;;;;;;;;;;5075377;28;20099;-77
2021/04/28 07:05:51;;;;;;;6.55;3.20;;;;;;;;;;5074014;28;20427;-76
2021/04/28 07:08:17;;;;;;;5.07;2.88;;;;;;;;;;5075425;28;20100;-76
2021/04/28 07:10:42;;;;;;;4.80;2.65;;;;;;;;;;5071093;28;20026;-76
2021/04/28 07:13:08;;;;;;;7.97;3.03;;;;;;;;;;5069910;28;20367;-76
2021/04/28 07:15:34;;;;;;;8.48;3.67;;;;;;;;;;5074340;28;20016;-77
2021/04/28 07:18:00;;;;;;;8.73;3.45;;;;;;;;;;5072949;28;20029;-76
2021/04/28 07:20:26;;;;;;;8.05;3.63;;;;;;;;;;5074499;28;20012;-76
2021/04/28 07:22:53;;;;;;;6.00;3.80;;;;;;;;;;5076385;28;20100;-77
2021/04/28 07:25:18;;;;;;;6.53;3.60;;;;;;;;;;5073975;28;20469;-77
2021/04/28 07:27:44;;;;;;;8.10;3.83;;;;;;;;;;5065578;28;20108;-77
2021/04/28 07:30:12;;;;;;;6.68;4.18;;;;;;;;;;5058817;28;20031;-76
2021/04/28 07:32:39;;;;;;;7.95;4.20;;;;;;;;;;5085962;28;20481;-77
2021/04/28 07:35:05;;;;;;;8.23;4.70;;;;;;;;;;5055544;28;20021;-77
2021/04/28 07:37:31;;;;;;;9.50;4.55;;;;;;;;;;5055037;28;20108;-76
2021/04/28 07:39:57;;;;;;;7.78;4.40;;;;;;;;;;5052533;28;20021;-77
2021/04/28 07:42:22;;;;;;;8.00;4.50;;;;;;;;;;5055262;28;20010;-76
2021/04/28 07:44:48;;;;;;;7.65;4.53;;;;;;;;;;5052249;28;20091;-77
2021/04/28 07:47:15;;;;;;;10.02;4.40;;;;;;;;;;5055614;28;20099;-77
2021/04/28 07:49:40;;;;;;;10.48;4.65;;;;;;;;;;5052659;28;20028;-76
2021/04/28 07:52:06;;;;;;;8.90;4.53;;;;;;;;;;5056269;28;20112;-77
2021/04/28 07:54:32;;;;;;;7.55;4.88;;;;;;;;;;5048843;28;20086;-76
2021/04/28 07:56:59;;;;;;;7.72;4.47;;;;;;;;;;5046053;28;20031;-77
2021/04/28 07:59:25;;;;;;;7.88;4.38;;;;;;;;;;5052505;28;20061;-77
2021/04/28 08:01:51;;;;;;;8.32;5.13;;;;;;;;;;5052983;28;20023;-77
2021/04/28 08:04:19;;;;;;;9.20;4.78;;;;;;;;;;5052516;28;20053;-76
2021/04/28 08:06:45;;;;;;;7.72;4.60;;;;;;;;;;5052650;28;20107;-77
2021/04/28 08:09:11;;;;;;;9.32;4.72;;;;;;;;;;5051506;28;20072;-77
2021/04/28 08:11:36;;;;;;;7.43;5.10;;;;;;;;;;5052902;28;20116;-77
2021/04/28 08:14:02;;;;;;;7.55;4.85;;;;;;;;;;5052482;28;20115;-77
2021/04/28 08:16:28;;;;;;;8.82;5.03;;;;;;;;;;5052285;28;20057;-77
2021/04/28 08:18:53;;;;;;;10.45;5.28;;;;;;;;;;5052465;28;20028;-77
2021/04/28 08:21:19;;;;;;;9.48;5.38;;;;;;;;;;5052247;28;20020;-77
2021/04/28 08:23:45;;;;;;;10.80;5.05;;;;;;;;;;5052049;28;20025;-76
2021/04/28 08:26:11;;;;;;;9.27;5.25;;;;;;;;;;5052357;28;20032;-77
2021/04/28 08:28:39;;;;;;;11.43;6.35;;;;;;;;;;5052270;28;20040;-77
2021/04/28 08:31:06;;;;;;;12.68;6.30;;;;;;;;;;5052533;28;20060;-77
2021/04/28 08:33:31;;;;;;;10.35;6.25;;;;;;;;;;5051844;28;20028;-76
2021/04/28 08:35:57;;;;;;;8.77;5.80;;;;;;;;;;5052167;28;20027;-77
2021/04/28 08:38:23;;;;;;;10.88;6.32;;;;;;;;;;5051593;28;20100;-77
2021/04/28 08:40:48;;;;;;;15.60;6.65;;;;;;;;;;5051796;28;20096;-77
2021/04/28 08:43:14;;;;;;;13.40;6.85;;;;;;;;;;5052119;28;20017;-76
2021/04/28 08:45:40;;;;;;;14.10;6.65;;;;;;;;;;5051585;28;20031;-76
2021/04/28 08:48:05;;;;;;;13.05;7.00;;;;;;;;;;5052213;28;20056;-77
2021/04/28 08:50:31;;;;;;;10.77;6.97;;;;;;;;;;5052789;28;20024;-78
2021/04/28 08:52:57;;;;;;;12.10;5.28;;;;;;;;;;5052319;28;20025;-77
2021/04/28 08:55:23;;;;;;;14.38;7.40;;;;;;;;;;5053156;28;20392;-77
2021/04/28 08:57:49;;;;;;;13.05;6.63;;;;;;;;;;5052014;28;20021;-77
2021/04/28 09:00:15;;;;;;;10.57;6.03;;;;;;;;;;5052121;28;20027;-77
2021/04/28 09:02:52;;;;;;;13.05;7.18;;;;;;;;;;5051996;28;20130;-77
2021/04/28 09:05:18;;;;;;;10.00;5.90;;;;;;;;;;5047909;28;20036;-77
2021/04/28 09:07:44;;;;;;;10.57;5.82;;;;;;;;;;5052627;28;20029;-76
2021/04/28 09:10:14;;;;;;;11.73;6.10;;;;;;;;;;5052237;28;20028;-77
2021/04/28 09:12:41;;;;;;;12.40;6.55;;;;;;;;;;5052266;28;20520;-77
2021/04/28 09:15:10;;;;;;;11.60;7.18;;;;;;;;;;5055373;28;20056;-78
2021/04/28 09:17:51;;;;;;;12.35;6.85;;;;;;;;;;5057298;28;20104;-77
2021/04/28 09:20:22;;;;;;;11.68;6.63;;;;;;;;;;5054049;28;20025;-77
2021/04/28 09:23:01;;;;;;;13.77;6.82;;;;;;;;;;5052167;28;20025;-77
2021/04/28 09:25:34;;;;;;;10.10;6.50;;;;;;;;;;5053025;28;20021;-77
2021/04/28 09:28:19;;;;;;;12.18;6.65;;;;;;;;;;5060514;28;20023;-78
2021/04/28 09:30:44;;;;;;;10.10;6.38;;;;;;;;;;5057693;28;20879;-78
2021/04/28 09:33:11;;;;;;;9.85;6.60;;;;;;;;;;5060488;28;20020;-78
2021/04/28 09:35:37;;;;;;;15.98;7.18;;;;;;;;;;5055121;28;20036;-78
2021/04/28 09:38:03;;;;;;;8.35;5.93;;;;;;;;;;5055555;28;20044;-77
2021/04/28 09:40:42;;;;;;;11.77;6.15;;;;;;;;;;5057975;28;20024;-77
2021/04/28 09:43:08;;;;;;;13.73;6.95;;;;;;;;;;5060042;28;20025;-77
2021/04/28 09:45:40;;;;;;;9.80;5.57;;;;;;;;;;5059896;28;20106;-78
2021/04/28 09:48:06;;;;;;;10.98;5.63;;;;;;;;;;5059836;28;20025;-77
2021/04/28 09:50:31;;;;;;;10.10;6.07;;;;;;;;;;5067110;28;20445;-78
2021/04/28 09:52:57;;;;;;;9.38;5.97;;;;;;;;;;5062480;28;20018;-77
2021/04/28 09:55:23;;;;;;;8.80;6.15;;;;;;;;;;5060386;28;20045;-77
2021/04/28 09:57:53;;;;;;;11.35;6.15;;;;;;;;;;5055120;28;20043;-77
2021/04/28 10:00:22;;;;;;;8.75;5.07;;;;;;;;;;5058321;28;20025;-77
2021/04/28 10:02:54;;;;;;;8.70;5.43;;;;;;;;;;5058481;28;20519;-77
2021/04/28 10:05:20;;;;;;;9.85;5.90;;;;;;;;;;5059677;28;20052;-77
2021/04/28 10:07:46;;;;;;;10.70;5.55;;;;;;;;;;5057079;28;20032;-78
2021/04/28 10:10:12;;;;;;;13.48;6.10;;;;;;;;;;5061116;28;20024;-77
2021/04/28 10:12:38;;;;;;;9.68;4.90;;;;;;;;;;5061183;28;20054;-78
2021/04/28 10:15:05;;;;;;;7.60;5.03;;;;;;;;;;5062991;28;20025;-78
2021/04/28 10:17:31;;;;;;;7.38;5.13;;;;;;;;;;5059906;28;20070;-77
2021/04/28 10:19:57;;;;;;;9.23;5.40;;;;;;;;;;5056374;28;20028;-78
2021/04/28 10:22:23;;;;;;;8.25;5.15;;;;;;;;;;5061007;28;20025;-78
2021/04/28 10:24:50;;;;;;;10.10;4.88;;;;;;;;;;5054676;28;20543;-77
2021/04/28 10:27:17;;;;;;;7.97;5.18;;;;;;;;;;5057546;28;20029;-78
2021/04/28 10:29:43;;;;;;;11.43;4.60;;;;;;;;;;5056572;28;20046;-77
2021/04/28 10:32:12;;;;;;;8.25;5.00;;;;;;;;;;5059188;28;20083;-77
2021/04/28 10:34:52;;;;;;;7.03;4.25;;;;;;;;;;5052153;28;20452;-77
2021/04/28 10:37:19;;;;;;;7.03;3.83;;;;;;;;;;5055529;28;20031;-77
2021/04/28 10:39:48;;;;;;;7.22;4.53;;;;;;;;;;5057203;28;20048;-76
2021/04/28 10:42:24;;;;;;;7.35;4.72;;;;;;;;;;5053866;28;20468;-76
2021/04/28 10:44:50;;;;;;;7.55;4.13;;;;;;;;;;5052799;28;20021;-77
2021/04/28 10:47:19;;;;;;;6.90;4.25;;;;;;;;;;5054677;28;20052;-76
2021/04/28 10:50:05;;;;;;;9.10;4.80;;;;;;;;;;5050423;28;20047;-76
2021/04/28 10:52:31;;;;;;;7.60;4.60;;;;;;;;;;5051856;28;20051;-76
2021/04/28 10:54:57;;;;;;;7.07;4.88;;;;;;;;;;5059924;28;20017;-76
2021/04/28 10:57:39;;;;;;;8.48;4.50;;;;;;;;;;5061359;28;20012;-77
2021/04/28 11:00:20;;;;;;;9.82;3.90;;;;;;;;;;5055412;28;20036;-76
2021/04/28 11:02:46;;;;;;;9.48;4.30;;;;;;;;;;5056046;28;20020;-76
2021/04/28 11:05:21;;;;;;;7.43;3.80;;;;;;;;;;5066145;28;20383;-77
2021/04/28 11:07:51;;;;;;;7.53;4.65;;;;;;;;;;5071952;28;20063;-80
2021/04/28 11:10:31;;;;;;;9.23;5.03;;;;;;;;;;5067268;28;20476;-79
2021/04/28 11:13:06;;;;;;;7.15;4.35;;;;;;;;;;5073218;28;20055;-77
2021/04/28 11:15:51;;;;;;;5.72;4.10;;;;;;;;;;5072278;28;20017;-79
2021/04/28 11:18:33;;;;;;;8.30;5.15;;;;;;;;;;5063553;28;20032;-79
2021/04/28 11:21:11;;;;;;;6.07;3.83;;;;;;;;;;5062931;28;20033;-78
2021/04/28 11:23:37;;;;;;;6.10;3.90;;;;;;;;;;5074110;28;20025;-77
2021/04/28 11:26:22;;;;;;;7.30;4.57;;;;;;;;;;5076161;28;20025;-77
2021/04/28 11:28:49;;;;;;;10.93;4.38;;;;;;;;;;5063058;28;20040;-77
2021/04/28 11:31:24;;;;;;;9.35;4.38;;;;;;;;;;5067079;28;20025;-76
2021/04/28 11:33:50;;;;;;;7.47;3.85;;;;;;;;;;5066087;28;20057;-78
2021/04/28 11:36:17;;;;;;;7.35;3.58;;;;;;;;;;5063909;28;20017;-79
2021/04/28 11:38:47;;;;;;;9.00;4.05;;;;;;;;;;5064979;28;20131;-78
2021/04/28 11:41:17;;;;;;;7.13;3.80;;;;;;;;;;5065367;28;20031;-77
2021/04/28 11:43:47;;;;;;;6.93;3.50;;;;;;;;;;5066956;28;20025;-78
2021/04/28 11:46:17;;;;;;;7.75;3.33;;;;;;;;;;5069156;28;20274;-76
2021/04/28 11:51:02;;;;;;;7.55;3.92;;;;;;;;;;5102364;27;20441;-77
2021/04/28 11:53:29;;;;;;;8.35;3.60;;;;;;;;;;5092884;28;20028;-77
2021/04/28 11:55:54;;;;;;;6.57;3.53;;;;;;;;;;5094112;28;20506;-78
2021/04/28 11:58:21;;;;;;;4.90;3.17;;;;;;;;;;5084502;28;20029;-81
2021/04/28 12:00:47;;;;;;;16.38;4.13;;;;;;;;;;5081143;28;20016;-80
2021/04/28 12:03:13;;;;;;;5.57;3.50;;;;;;;;;;5085554;28;20020;-81
2021/04/28 12:05:38;;;;;;;5.20;3.65;;;;;;;;;;5083097;28;20099;-82
2021/04/28 12:08:04;;;;;;;7.88;4.35;;;;;;;;;;5082705;28;20034;-82
2021/04/28 12:10:30;;;;;;;8.50;3.88;;;;;;;;;;5088357;28;20028;-81
2021/04/28 12:12:56;;;;;;;5.30;3.22;;;;;;;;;;5084071;28;20021;-79
2021/04/28 12:15:21;;;;;;;6.43;3.92;;;;;;;;;;5089565;28;20073;-81
2021/04/28 12:17:48;;;;;;;10.52;3.40;;;;;;;;;;5088104;28;20017;-82
2021/04/28 12:20:15;;;;;;;12.15;3.90;;;;;;;;;;5087120;28;20082;-79
2021/04/28 12:22:41;;;;;;;7.63;3.42;;;;;;;;;;5087780;28;20020;-80
2021/04/28 12:25:07;;;;;;;10.30;3.22;;;;;;;;;;5087136;28;20027;-80
2021/04/28 12:27:33;;;;;;;6.90;3.25;;;;;;;;;;5085933;28;20024;-80
2021/04/28 12:29:59;;;;;;;5.75;3.50;;;;;;;;;;5090788;28;20020;-79
2021/04/28 12:32:30;;;;;;;5.97;3.15;;;;;;;;;;5085195;28;20032;-80
2021/04/28 12:35:15;;;;;;;6.55;3.20;;;;;;;;;;5083530;28;20020;-81
2021/04/28 12:37:41;;;;;;;6.03;3.45;;;;;;;;;;5085898;28;20024;-78
2021/04/28 12:40:11;;;;;;;10.60;3.40;;;;;;;;;;5087664;28;20410;-81
2021/04/28 12:42:38;;;;;;;5.55;3.75;;;;;;;;;;5089722;28;20020;-79
2021/04/28 12:45:05;;;;;;;8.48;4.10;;;;;;;;;;5090008;28;20028;-81
2021/04/28 12:47:32;;;;;;;6.43;3.42;;;;;;;;;;5085280;28;20028;-78
2021/04/28 12:50:08;;;;;;;9.10;4.50;;;;;;;;;;5075796;28;20054;-79
2021/04/28 12:52:43;;;;;;;6.15;3.97;;;;;;;;;;5078958;28;20600;-79
2021/04/28 12:55:27;;;;;;;7.60;3.75;;;;;;;;;;5087056;28;20079;-79
2021/04/28 12:58:13;;;;;;;9.82;4.18;;;;;;;;;;5080619;28;20104;-81
2021/04/28 13:00:45;;;;;;;7.63;4.38;;;;;;;;;;5072266;28;20089;-80
2021/04/28 13:03:12;;;;;;;9.25;4.47;;;;;;;;;;5068689;28;20036;-79
2021/04/28 13:05:42;;;;;;;7.20;3.88;;;;;;;;;;5074282;28;20473;-78
2021/04/28 13:08:20;;;;;;;7.45;4.50;;;;;;;;;;5078520;28;20431;-80
2021/04/28 13:10:58;;;;;;;9.23;4.25;;;;;;;;;;5074539;28;20052;-78
2021/04/28 13:13:30;;;;;;;9.38;5.03;;;;;;;;;;5077450;28;20099;-81
2021/04/28 13:15:55;;;;;;;6.90;3.97;;;;;;;;;;5063104;28;20029;-79
2021/04/28 13:18:21;;;;;;;11.98;4.72;;;;;;;;;;5078624;28;20111;-80
2021/04/28 13:20:47;;;;;;;11.05;4.22;;;;;;;;;;5077922;28;20024;-78
2021/04/28 13:23:14;;;;;;;5.65;4.00;;;;;;;;;;5077434;28;20685;-80
2021/04/28 13:25:59;;;;;;;7.80;3.63;;;;;;;;;;5075001;28;20035;-77
2021/04/28 13:28:31;;;;;;;6.63;3.97;;;;;;;;;;5076557;28;20102;-80
2021/04/28 13:31:16;;;;;;;6.38;4.10;;;;;;;;;;5076599;28;20013;-81
2021/04/28 13:33:42;;;;;;;11.50;5.40;;;;;;;;;;5069303;28;20020;-80
2021/04/28 13:36:18;;;;;;;8.75;5.25;;;;;;;;;;5072672;28;20027;-80
2021/04/28 13:38:48;;;;;;;11.57;4.43;;;;;;;;;;5062589;28;20461;-78
2021/04/28 13:41:14;;;;;;;8.68;4.38;;;;;;;;;;5069808;28;20503;-78
2021/04/28 13:43:40;;;;;;;8.35;4.20;;;;;;;;;;5057517;28;20021;-79
2021/04/28 13:46:05;;;;;;;6.50;3.85;;;;;;;;;;5062742;28;20021;-78
2021/04/28 13:48:31;;;;;;;7.82;4.13;;;;;;;;;;5056972;28;20029;-79
2021/04/28 13:50:57;;;;;;;10.43;4.40;;;;;;;;;;5058856;28;20025;-80
2021/04/28 13:53:22;;;;;;;7.18;4.10;;;;;;;;;;5065777;28;20499;-78
2021/04/28 13:55:48;;;;;;;7.72;4.05;;;;;;;;;;5064695;28;20388;-78
2021/04/28 13:58:14;;;;;;;7.95;4.20;;;;;;;;;;5067233;28;20120;-80
2021/04/28 14:00:39;;;;;;;24.05;4.07;;;;;;;;;;5073918;28;20048;-80
2021/04/28 14:03:08;;;;;;;9.57;3.88;;;;;;;;;;5071119;28;20491;-79
2021/04/28 14:05:33;;;;;;;10.32;3.20;;;;;;;;;;5070976;28;20067;-80
2021/04/28 14:08:02;;;;;;;13.40;3.90;;;;;;;;;;5071184;28;20107;-80
2021/04/28 14:10:29;;;;;;;6.47;3.28;;;;;;;;;;5073018;28;20021;-79
2021/04/28 14:12:55;;;;;;;5.38;2.90;;;;;;;;;;5072231;28;20167;-81
2021/04/28 14:15:20;;;;;;;6.00;3.35;;;;;;;;;;5059130;28;19912;-78
2021/04/28 14:17:46;;;;;;;6.15;2.35;;;;;;;;;;5068149;28;20472;-80
2021/04/28 14:20:12;;;;;;;5.00;2.65;;;;;;;;;;5077473;28;20028;-78
2021/04/28 14:22:40;;;;;;;6.68;3.08;;;;;;;;;;5063018;28;20491;-79
2021/04/28 14:25:06;;;;;;;17.23;4.25;;;;;;;;;;5071395;28;20142;-79
2021/04/28 14:27:32;;;;;;;9.48;3.47;;;;;;;;;;5070259;28;20024;-79
2021/04/28 14:29:58;;;;;;;14.27;4.10;;;;;;;;;;5073600;28;20030;-79
2021/04/28 14:32:23;;;;;;;11.05;3.47;;;;;;;;;;5066240;28;20052;-78
2021/04/28 14:34:49;;;;;;;19.05;5.18;;;;;;;;;;5074853;28;20016;-80
2021/04/28 14:37:15;;;;;;;9.18;3.70;;;;;;;;;;5067591;28;20025;-80
2021/04/28 14:39:40;;;;;;;8.32;2.80;;;;;;;;;;5069078;28;20021;-80
2021/04/28 14:42:06;;;;;;;6.68;2.70;;;;;;;;;;5063380;28;20096;-80
2021/04/28 14:44:32;;;;;;;11.63;2.97;;;;;;;;;;5065922;28;20098;-79
2021/04/28 14:46:58;;;;;;;5.43;3.00;;;;;;;;;;5070449;28;20074;-78
2021/04/28 14:49:23;;;;;;;6.13;2.92;;;;;;;;;;5065194;28;20455;-81
2021/04/28 14:51:49;;;;;;;7.25;2.83;;;;;;;;;;5068682;28;20056;-81
2021/04/28 14:54:15;;;;;;;4.85;2.78;;;;;;;;;;5049643;28;20037;-80
2021/04/28 14:56:41;;;;;;;4.13;2.50;;;;;;;;;;5062616;28;20039;-80
2021/04/28 14:59:07;;;;;;;6.25;3.50;;;;;;;;;;5065562;28;20027;-78
2021/04/28 15:01:33;;;;;;;7.85;3.83;;;;;;;;;;5069490;28;19987;-79
2021/04/28 15:03:59;;;;;;;8.95;4.32;;;;;;;;;;5072749;28;20054;-77
2021/04/28 15:06:24;;;;;;;5.68;3.08;;;;;;;;;;5076065;28;20725;-78
2021/04/28 15:08:50;;;;;;;7.55;4.78;;;;;;;;;;5073954;28;20335;-78
2021/04/28 15:11:16;;;;;;;6.90;4.35;;;;;;;;;;5075870;28;20054;-78
2021/04/28 15:13:42;;;;;;;10.07;4.18;;;;;;;;;;5076748;28;20473;-78
2021/04/28 15:16:08;;;;;;;8.48;3.60;;;;;;;;;;5077243;28;20016;-78
2021/04/28 15:18:34;;;;;;;9.65;3.60;;;;;;;;;;5077448;28;20682;-78
2021/04/28 15:21:00;;;;;;;6.43;3.63;;;;;;;;;;5075418;28;20028;-78
2021/04/28 15:23:26;;;;;;;9.32;3.40;;;;;;;;;;5074736;28;20033;-78
2021/04/28 15:25:52;;;;;;;8.73;4.00;;;;;;;;;;5078941;28;20028;-78
2021/04/28 15:28:17;;;;;;;10.60;4.53;;;;;;;;;;5076215;28;20040;-78
2021/04/28 15:30:43;;;;;;;5.68;3.38;;;;;;;;;;5072313;28;20024;-77
2021/04/28 15:33:16;;;;;;;6.78;3.75;;;;;;;;;;5075669;28;20040;-77
2021/04/28 15:35:42;;;;;;;5.03;3.17;;;;;;;;;;5072869;28;20013;-78
2021/04/28 15:38:08;;;;;;;9.70;4.00;;;;;;;;;;5068014;28;20024;-78
2021/04/28 15:40:36;;;;;;;7.82;3.53;;;;;;;;;;5069790;28;20111;-78
2021/04/28 15:43:01;;;;;;;7.32;4.38;;;;;;;;;;5066385;28;20040;-76
2021/04/28 15:45:27;;;;;;;6.57;3.67;;;;;;;;;;5071408;28;20036;-75
2021/04/28 15:47:53;;;;;;;5.55;3.45;;;;;;;;;;5076003;28;21798;-78
2021/04/28 15:50:19;;;;;;;5.05;3.30;;;;;;;;;;5070321;28;20078;-79
2021/04/28 15:52:45;;;;;;;13.93;3.78;;;;;;;;;;5071832;28;20024;-78
2021/04/28 15:55:11;;;;;;;8.32;3.97;;;;;;;;;;5072994;28;20515;-78
2021/04/28 15:57:37;;;;;;;5.80;3.55;;;;;;;;;;5071835;28;20027;-78
2021/04/28 16:00:04;;;;;;;5.25;3.20;;;;;;;;;;5072608;28;20032;-76
2021/04/28 16:02:29;;;;;;;7.80;3.47;;;;;;;;;;5071941;28;20021;-79
2021/04/28 16:04:55;;;;;;;7.05;3.63;;;;;;;;;;5064652;28;20507;-77
2021/04/28 16:07:21;;;;;;;5.40;3.25;;;;;;;;;;5068116;28;20062;-77
2021/04/28 16:09:46;;;;;;;5.57;3.40;;;;;;;;;;5069616;28;20036;-76
2021/04/28 16:12:12;;;;;;;5.75;3.00;;;;;;;;;;5073245;28;20045;-77
2021/04/28 16:14:38;;;;;;;10.27;4.15;;;;;;;;;;5072087;28;20100;-78
2021/04/28 16:17:04;;;;;;;5.30;3.22;;;;;;;;;;5064676;28;20111;-78
2021/04/28 16:19:30;;;;;;;10.48;4.18;;;;;;;;;;5069199;28;20017;-76
2021/04/28 16:21:56;;;;;;;7.32;3.03;;;;;;;;;;5063212;28;20020;-78
2021/04/28 16:24:22;;;;;;;4.95;3.00;;;;;;;;;;5062784;28;20027;-77
2021/04/28 16:26:48;;;;;;;6.22;3.33;;;;;;;;;;5063977;28;20025;-78
2021/04/28 16:29:14;;;;;;;8.10;3.00;;;;;;;;;;5067116;28;20012;-78
2021/04/28 16:31:39;;;;;;;7.45;4.32;;;;;;;;;;5067704;28;20103;-78
2021/04/28 16:34:05;;;;;;;5.82;2.90;;;;;;;;;;5064968;28;20033;-76
2021/04/28 16:36:31;;;;;;;9.57;3.15;;;;;;;;;;5057317;28;20048;-78
2021/04/28 16:38:56;;;;;;;5.40;2.83;;;;;;;;;;5073916;28;20066;-78
2021/04/28 16:41:22;;;;;;;6.45;3.20;;;;;;;;;;5060093;28;20048;-77
2021/04/28 16:43:48;;;;;;;6.90;2.42;;;;;;;;;;5072683;28;20594;-77
2021/04/28 16:46:14;;;;;;;5.43;2.60;;;;;;;;;;5074710;28;20095;-77
2021/04/28 16:48:40;;;;;;;5.57;2.88;;;;;;;;;;5075075;28;20099;-78
2021/04/28 16:51:06;;;;;;;8.50;3.42;;;;;;;;;;5071986;28;20052;-78
2021/04/28 16:53:32;;;;;;;7.47;2.97;;;;;;;;;;5075993;28;20095;-78
2021/04/28 16:55:57;;;;;;;5.28;2.58;;;;;;;;;;5075719;28;20138;-78
2021/04/28 16:58:23;;;;;;;7.68;2.58;;;;;;;;;;5072967;28;20025;-77
2021/04/28 17:00:49;;;;;;;5.63;2.58;;;;;;;;;;5071521;28;20035;-77
2021/04/28 17:03:14;;;;;;;8.32;3.45;;;;;;;;;;5070887;28;20040;-78
2021/04/28 17:05:40;;;;;;;5.28;2.83;;;;;;;;;;5072476;28;20395;-76
2021/04/28 17:08:06;;;;;;;7.95;5.35;;;;;;;;;;5072591;28;20025;-76
2021/04/28 17:10:32;;;;;;;9.10;5.20;;;;;;;;;;5074987;28;20100;-78
2021/04/28 17:12:58;;;;;;;7.22;4.07;;;;;;;;;;5073866;28;20021;-78
2021/04/28 17:15:23;;;;;;;5.80;3.78;;;;;;;;;;5073216;28;20099;-78
2021/04/28 17:17:49;;;;;;;5.18;3.30;;;;;;;;;;5077479;28;20107;-78
2021/04/28 17:20:15;;;;;;;5.70;3.25;;;;;;;;;;5074323;28;20083;-77
2021/04/28 17:22:41;;;;;;;5.03;3.22;;;;;;;;;;5070482;28;20028;-78
2021/04/28 17:25:07;;;;;;;5.57;3.10;;;;;;;;;;5065717;28;20047;-76
2021/04/28 17:27:33;;;;;;;6.53;3.40;;;;;;;;;;5071814;28;20029;-77
2021/04/28 17:29:59;;;;;;;5.03;2.92;;;;;;;;;;5076080;28;20052;-77
2021/04/28 17:32:25;;;;;;;5.30;2.65;;;;;;;;;;5074709;28;20076;-78
2021/04/28 17:34:50;;;;;;;5.25;2.92;;;;;;;;;;5076109;28;20031;-78
2021/04/28 17:37:17;;;;;;;5.97;2.60;;;;;;;;;;5074744;28;20020;-78
2021/04/28 17:39:43;;;;;;;8.40;2.60;;;;;;;;;;5074274;28;20026;-79
2021/04/28 17:42:10;;;;;;;4.93;2.22;;;;;;;;;;5073708;28;20563;-78
2021/04/28 17:44:35;;;;;;;6.32;2.88;;;;;;;;;;5070036;28;20017;-77
2021/04/28 17:47:02;;;;;;;4.82;2.80;;;;;;;;;;5073651;28;20020;-77
2021/04/28 17:49:27;;;;;;;5.35;2.78;;;;;;;;;;5072710;28;20395;-75
2021/04/28 17:51:53;;;;;;;5.93;3.85;;;;;;;;;;5068765;28;20025;-77
2021/04/28 17:54:19;;;;;;;9.07;4.13;;;;;;;;;;5069231;28;20498;-76
2021/04/28 17:56:44;;;;;;;6.03;3.40;;;;;;;;;;5065665;28;20058;-78
2021/04/28 17:59:10;;;;;;;6.03;3.65;;;;;;;;;;5067459;28;20024;-78
2021/04/28 18:01:36;;;;;;;5.57;3.05;;;;;;;;;;5067545;28;20055;-78
2021/04/28 18:04:01;;;;;;;11.52;9.23;;;;;;;;;;5071278;28;20024;-78
2021/04/28 18:06:28;;;;;;;8.90;6.10;;;;;;;;;;5069580;28;20156;-76
2021/04/28 18:08:57;;;;;;;5.38;3.72;;;;;;;;;;5074103;28;20028;-78
2021/04/28 18:11:23;;;;;;;8.40;3.47;;;;;;;;;;5077058;28;20027;-77
2021/04/28 18:13:49;;;;;;;6.95;4.68;;;;;;;;;;5076179;28;20025;-78
2021/04/28 18:16:15;;;;;;;6.03;3.53;;;;;;;;;;5075072;28;20016;-77
2021/04/28 18:18:41;;;;;;;5.47;2.65;;;;;;;;;;5076779;28;20055;-78
2021/04/28 18:21:07;;;;;;;4.38;2.70;;;;;;;;;;5073054;28;20028;-76
2021/04/28 18:23:34;;;;;;;5.35;3.15;;;;;;;;;;5073858;28;20092;-76
2021/04/28 18:25:59;;;;;;;4.88;2.70;;;;;;;;;;5076922;28;20047;-78
2021/04/28 18:28:25;;;;;;;4.32;2.58;;;;;;;;;;5075794;28;20021;-77
2021/04/28 18:30:52;;;;;;;6.18;2.70;;;;;;;;;;5073908;28;20040;-77
2021/04/28 18:33:18;;;;;;;4.50;2.85;;;;;;;;;;5072787;28;20031;-76
2021/04/28 18:35:44;;;;;;;6.15;2.95;;;;;;;;;;5071089;28;20020;-77
2021/04/28 18:38:10;;;;;;;4.47;2.90;;;;;;;;;;5076414;28;20532;-77
2021/04/28 18:40:35;;;;;;;3.88;2.53;;;;;;;;;;5072576;28;20037;-76
2021/04/28 18:43:01;;;;;;;4.38;2.85;;;;;;;;;;5071754;28;20028;-76
2021/04/28 18:45:27;;;;;;;6.57;3.00;;;;;;;;;;5073995;28;20025;-76
2021/04/28 18:47:53;;;;;;;4.30;2.90;;;;;;;;;;5071189;28;20028;-77
2021/04/28 18:50:18;;;;;;;5.20;2.60;;;;;;;;;;5065893;28;20025;-76
2021/04/28 18:52:45;;;;;;;3.97;2.67;;;;;;;;;;5076083;28;20013;-76
2021/04/28 18:55:11;;;;;;;4.43;2.97;;;;;;;;;;5076923;28;20439;-77
2021/04/28 18:57:37;;;;;;;5.15;2.80;;;;;;;;;;5086832;22;20013;-79
2021/04/28 19:00:06;;;;;;;5.70;3.15;;;;;;;;;;5059932;28;20374;-78
2021/04/28 19:02:32;;;;;;;5.38;2.80;;;;;;;;;;5054337;28;20036;-78
2021/04/28 19:04:58;;;;;;;5.63;3.22;;;;;;;;;;5059400;28;20037;-78
2021/04/28 19:07:25;;;;;;;6.60;2.85;;;;;;;;;;5061620;28;20020;-78
2021/04/28 19:09:50;;;;;;;5.47;3.13;;;;;;;;;;5065597;28;20033;-79
2021/04/28 19:12:18;;;;;;;6.00;3.40;;;;;;;;;;5066186;28;20032;-78
2021/04/28 19:14:43;;;;;;;4.15;2.50;;;;;;;;;;5042086;28;20032;-80
2021/04/28 19:17:09;;;;;;;7.45;3.38;;;;;;;;;;5038406;28;20025;-78
2021/04/28 19:19:35;;;;;;;8.38;3.00;;;;;;;;;;5034718;28;20017;-78
2021/04/28 19:22:01;;;;;;;5.20;2.85;;;;;;;;;;5052329;28;20441;-78
2021/04/28 19:24:26;;;;;;;7.20;2.97;;;;;;;;;;5049848;28;20028;-77
2021/04/28 19:26:52;;;;;;;5.93;3.38;;;;;;;;;;5053413;28;20037;-78
2021/04/28 19:29:18;;;;;;;8.00;2.83;;;;;;;;;;5058473;28;20202;-79
2021/04/28 19:31:44;;;;;;;4.47;2.67;;;;;;;;;;5058714;28;20028;-78
2021/04/28 19:34:10;;;;;;;4.65;2.92;;;;;;;;;;5051243;28;20136;-79